sensor_id;sensor_type;location;lat;lon;timestamp;P1;durP1;ratioP1;P2;durP2;ratioP2
64060;SDS011;60147;55.036;73.242;2022-10-16T00:01:08;18.90;;;7.57;;
64060;SDS011;60147;55.036;73.242;2022-10-16T00:03:35;17.20;;;7.97;;
64060;SDS011;60147;55.036;73.242;2022-10-16T00:08:41;17.90;;;9.50;;
64060;SDS011;60147;55.036;73.242;2022-10-16T00:11:14;22.42;;;8.35;;
64060;SDS011;60147;55.036;73.242;2022-10-16T00:13:41;16.85;;;8.00;;
64060;SDS011;60147;55.036;73.242;2022-10-16T00:16:26;19.60;;;8.32;;
64060;SDS011;60147;55.036;73.242;2022-10-16T00:18:53;15.23;;;8.30;;
64060;SDS011;60147;55.036;73.242;2022-10-16T00:21:20;23.67;;;9.50;;
64060;SDS011;60147;55.036;73.242;2022-10-16T00:23:52;16.52;;;8.73;;
64060;SDS011;60147;55.036;73.242;2022-10-16T00:26:18;15.57;;;8.30;;
64060;SDS011;60147;55.036;73.242;2022-10-16T00:28:45;17.75;;;8.32;;
64060;SDS011;60147;55.036;73.242;2022-10-16T00:31:11;16.23;;;7.75;;
64060;SDS011;60147;55.036;73.242;2022-10-16T00:33:38;15.13;;;7.22;;
64060;SDS011;60147;55.036;73.242;2022-10-16T00:36:05;13.60;;;7.55;;
64060;SDS011;60147;55.036;73.242;2022-10-16T00:38:31;17.50;;;7.25;;
64060;SDS011;60147;55.036;73.242;2022-10-16T00:41:03;12.63;;;7.05;;
64060;SDS011;60147;55.036;73.242;2022-10-16T00:43:37;16.33;;;7.28;;
64060;SDS011;60147;55.036;73.242;2022-10-16T00:46:07;11.75;;;6.88;;
64060;SDS011;60147;55.036;73.242;2022-10-16T00:51:28;17.77;;;8.55;;
64060;SDS011;60147;55.036;73.242;2022-10-16T00:53:56;14.80;;;8.50;;
64060;SDS011;60147;55.036;73.242;2022-10-16T00:56:22;17.30;;;8.32;;
64060;SDS011;60147;55.036;73.242;2022-10-16T00:58:48;18.90;;;8.93;;
64060;SDS011;60147;55.036;73.242;2022-10-16T01:01:25;21.45;;;9.00;;
64060;SDS011;60147;55.036;73.242;2022-10-16T01:03:50;23.27;;;8.45;;
64060;SDS011;60147;55.036;73.242;2022-10-16T01:11:50;18.10;;;9.00;;
64060;SDS011;60147;55.036;73.242;2022-10-16T01:14:20;17.23;;;8.50;;
64060;SDS011;60147;55.036;73.242;2022-10-16T01:16:53;19.55;;;9.32;;
64060;SDS011;60147;55.036;73.242;2022-10-16T01:22:02;15.68;;;9.07;;
64060;SDS011;60147;55.036;73.242;2022-10-16T01:27:15;20.85;;;9.43;;
64060;SDS011;60147;55.036;73.242;2022-10-16T01:29:59;19.20;;;9.48;;
64060;SDS011;60147;55.036;73.242;2022-10-16T01:37:48;19.02;;;10.73;;
64060;SDS011;60147;55.036;73.242;2022-10-16T01:40:16;19.33;;;10.85;;
64060;SDS011;60147;55.036;73.242;2022-10-16T01:42:48;22.55;;;11.50;;
64060;SDS011;60147;55.036;73.242;2022-10-16T01:45:15;22.13;;;10.30;;
64060;SDS011;60147;55.036;73.242;2022-10-16T01:47:49;19.08;;;9.63;;
64060;SDS011;60147;55.036;73.242;2022-10-16T01:50:15;20.42;;;9.48;;
64060;SDS011;60147;55.036;73.242;2022-10-16T01:52:43;18.88;;;9.35;;
64060;SDS011;60147;55.036;73.242;2022-10-16T01:55:10;17.95;;;8.75;;
64060;SDS011;60147;55.036;73.242;2022-10-16T01:57:38;19.98;;;8.98;;
64060;SDS011;60147;55.036;73.242;2022-10-16T02:00:07;17.92;;;8.90;;
64060;SDS011;60147;55.036;73.242;2022-10-16T02:02:38;15.50;;;8.82;;
64060;SDS011;60147;55.036;73.242;2022-10-16T02:05:08;14.80;;;8.05;;
64060;SDS011;60147;55.036;73.242;2022-10-16T02:07:36;22.38;;;9.05;;
64060;SDS011;60147;55.036;73.242;2022-10-16T02:10:11;17.85;;;7.60;;
64060;SDS011;60147;55.036;73.242;2022-10-16T02:12:38;16.30;;;7.57;;
64060;SDS011;60147;55.036;73.242;2022-10-16T02:15:06;12.88;;;6.80;;
64060;SDS011;60147;55.036;73.242;2022-10-16T02:17:32;14.00;;;7.88;;
64060;SDS011;60147;55.036;73.242;2022-10-16T02:19:58;12.55;;;7.20;;
64060;SDS011;60147;55.036;73.242;2022-10-16T02:22:30;14.57;;;7.10;;
64060;SDS011;60147;55.036;73.242;2022-10-16T02:24:58;19.17;;;7.22;;
64060;SDS011;60147;55.036;73.242;2022-10-16T02:32:48;16.88;;;7.38;;
64060;SDS011;60147;55.036;73.242;2022-10-16T02:35:18;13.63;;;6.57;;
64060;SDS011;60147;55.036;73.242;2022-10-16T02:37:44;14.13;;;7.00;;
64060;SDS011;60147;55.036;73.242;2022-10-16T02:40:10;13.82;;;6.95;;
64060;SDS011;60147;55.036;73.242;2022-10-16T02:42:37;12.60;;;6.93;;
64060;SDS011;60147;55.036;73.242;2022-10-16T02:45:04;13.13;;;6.28;;
64060;SDS011;60147;55.036;73.242;2022-10-16T02:47:30;13.07;;;6.32;;
64060;SDS011;60147;55.036;73.242;2022-10-16T02:49:56;13.95;;;6.28;;
64060;SDS011;60147;55.036;73.242;2022-10-16T02:52:22;11.82;;;6.28;;
64060;SDS011;60147;55.036;73.242;2022-10-16T02:54:48;14.55;;;7.05;;
64060;SDS011;60147;55.036;73.242;2022-10-16T02:57:13;13.85;;;6.60;;
64060;SDS011;60147;55.036;73.242;2022-10-16T02:59:39;13.65;;;6.32;;
64060;SDS011;60147;55.036;73.242;2022-10-16T03:02:05;14.73;;;6.35;;
64060;SDS011;60147;55.036;73.242;2022-10-16T03:04:31;13.30;;;7.05;;
64060;SDS011;60147;55.036;73.242;2022-10-16T03:06:57;16.17;;;6.95;;
64060;SDS011;60147;55.036;73.242;2022-10-16T03:09:33;18.55;;;6.40;;
64060;SDS011;60147;55.036;73.242;2022-10-16T03:11:59;15.52;;;7.85;;
64060;SDS011;60147;55.036;73.242;2022-10-16T03:14:25;19.08;;;6.78;;
64060;SDS011;60147;55.036;73.242;2022-10-16T03:16:51;13.27;;;7.32;;
64060;SDS011;60147;55.036;73.242;2022-10-16T03:19:17;15.90;;;7.60;;
64060;SDS011;60147;55.036;73.242;2022-10-16T03:21:43;14.15;;;7.20;;
64060;SDS011;60147;55.036;73.242;2022-10-16T03:24:10;18.35;;;7.22;;
64060;SDS011;60147;55.036;73.242;2022-10-16T03:26:36;17.02;;;7.55;;
64060;SDS011;60147;55.036;73.242;2022-10-16T03:29:02;16.30;;;7.10;;
64060;SDS011;60147;55.036;73.242;2022-10-16T03:31:31;16.58;;;7.82;;
64060;SDS011;60147;55.036;73.242;2022-10-16T03:33:57;16.50;;;7.40;;
64060;SDS011;60147;55.036;73.242;2022-10-16T03:36:23;14.70;;;7.40;;
64060;SDS011;60147;55.036;73.242;2022-10-16T03:38:49;13.30;;;7.50;;
64060;SDS011;60147;55.036;73.242;2022-10-16T03:41:15;22.45;;;7.57;;
64060;SDS011;60147;55.036;73.242;2022-10-16T03:43:41;16.90;;;7.32;;
64060;SDS011;60147;55.036;73.242;2022-10-16T03:46:07;21.63;;;8.30;;
64060;SDS011;60147;55.036;73.242;2022-10-16T03:48:33;14.32;;;7.45;;
64060;SDS011;60147;55.036;73.242;2022-10-16T03:50:59;23.67;;;8.65;;
64060;SDS011;60147;55.036;73.242;2022-10-16T03:53:25;19.15;;;8.65;;
64060;SDS011;60147;55.036;73.242;2022-10-16T03:55:51;16.50;;;8.38;;
64060;SDS011;60147;55.036;73.242;2022-10-16T03:58:17;20.38;;;8.88;;
64060;SDS011;60147;55.036;73.242;2022-10-16T04:00:43;16.38;;;7.45;;
64060;SDS011;60147;55.036;73.242;2022-10-16T04:03:12;23.42;;;8.70;;
64060;SDS011;60147;55.036;73.242;2022-10-16T04:05:48;17.65;;;8.55;;
64060;SDS011;60147;55.036;73.242;2022-10-16T04:08:15;20.55;;;9.65;;
64060;SDS011;60147;55.036;73.242;2022-10-16T04:10:42;19.75;;;8.43;;
64060;SDS011;60147;55.036;73.242;2022-10-16T04:13:08;17.17;;;8.40;;
64060;SDS011;60147;55.036;73.242;2022-10-16T04:15:44;17.83;;;9.75;;
64060;SDS011;60147;55.036;73.242;2022-10-16T04:18:10;16.58;;;8.65;;
64060;SDS011;60147;55.036;73.242;2022-10-16T04:20:36;15.10;;;9.07;;
64060;SDS011;60147;55.036;73.242;2022-10-16T04:23:02;17.25;;;8.88;;
64060;SDS011;60147;55.036;73.242;2022-10-16T04:25:28;21.38;;;10.55;;
64060;SDS011;60147;55.036;73.242;2022-10-16T04:28:04;22.10;;;10.38;;
64060;SDS011;60147;55.036;73.242;2022-10-16T04:30:30;28.23;;;13.45;;
64060;SDS011;60147;55.036;73.242;2022-10-16T04:32:56;37.08;;;14.43;;
64060;SDS011;60147;55.036;73.242;2022-10-16T04:35:21;29.25;;;14.18;;
64060;SDS011;60147;55.036;73.242;2022-10-16T04:37:48;31.48;;;15.38;;
64060;SDS011;60147;55.036;73.242;2022-10-16T04:40:14;31.75;;;14.35;;
64060;SDS011;60147;55.036;73.242;2022-10-16T04:42:46;25.70;;;12.35;;
64060;SDS011;60147;55.036;73.242;2022-10-16T04:45:12;29.75;;;13.05;;
64060;SDS011;60147;55.036;73.242;2022-10-16T04:47:38;25.42;;;12.05;;
64060;SDS011;60147;55.036;73.242;2022-10-16T04:50:04;26.83;;;12.68;;
64060;SDS011;60147;55.036;73.242;2022-10-16T04:52:30;27.00;;;12.32;;
64060;SDS011;60147;55.036;73.242;2022-10-16T04:54:57;23.40;;;11.85;;
64060;SDS011;60147;55.036;73.242;2022-10-16T04:57:36;23.83;;;10.82;;
64060;SDS011;60147;55.036;73.242;2022-10-16T05:00:02;24.10;;;12.07;;
64060;SDS011;60147;55.036;73.242;2022-10-16T05:02:28;33.65;;;13.27;;
64060;SDS011;60147;55.036;73.242;2022-10-16T05:04:54;28.60;;;12.45;;
64060;SDS011;60147;55.036;73.242;2022-10-16T05:07:20;22.30;;;12.25;;
64060;SDS011;60147;55.036;73.242;2022-10-16T05:09:56;19.80;;;12.18;;
64060;SDS011;60147;55.036;73.242;2022-10-16T05:12:22;27.30;;;13.00;;
64060;SDS011;60147;55.036;73.242;2022-10-16T05:14:48;26.52;;;12.98;;
64060;SDS011;60147;55.036;73.242;2022-10-16T05:17:14;29.80;;;14.20;;
64060;SDS011;60147;55.036;73.242;2022-10-16T05:19:40;25.83;;;12.40;;
64060;SDS011;60147;55.036;73.242;2022-10-16T05:22:16;26.13;;;12.50;;
64060;SDS011;60147;55.036;73.242;2022-10-16T05:24:42;26.83;;;12.57;;
64060;SDS011;60147;55.036;73.242;2022-10-16T05:27:15;32.55;;;13.27;;
64060;SDS011;60147;55.036;73.242;2022-10-16T05:29:45;23.42;;;13.23;;
64060;SDS011;60147;55.036;73.242;2022-10-16T05:32:11;25.42;;;12.73;;
64060;SDS011;60147;55.036;73.242;2022-10-16T05:34:37;30.38;;;12.65;;
64060;SDS011;60147;55.036;73.242;2022-10-16T05:37:03;24.65;;;12.70;;
64060;SDS011;60147;55.036;73.242;2022-10-16T05:39:29;22.77;;;12.10;;
64060;SDS011;60147;55.036;73.242;2022-10-16T05:41:55;22.33;;;12.63;;
64060;SDS011;60147;55.036;73.242;2022-10-16T05:44:21;26.52;;;13.70;;
64060;SDS011;60147;55.036;73.242;2022-10-16T05:46:46;24.50;;;13.82;;
64060;SDS011;60147;55.036;73.242;2022-10-16T05:49:12;25.38;;;12.35;;
64060;SDS011;60147;55.036;73.242;2022-10-16T05:51:38;30.35;;;12.00;;
64060;SDS011;60147;55.036;73.242;2022-10-16T05:54:04;28.95;;;13.05;;
64060;SDS011;60147;55.036;73.242;2022-10-16T05:56:30;25.15;;;10.90;;
64060;SDS011;60147;55.036;73.242;2022-10-16T05:58:56;25.65;;;10.82;;
64060;SDS011;60147;55.036;73.242;2022-10-16T06:01:23;20.70;;;10.00;;
64060;SDS011;60147;55.036;73.242;2022-10-16T06:03:52;19.10;;;9.60;;
64060;SDS011;60147;55.036;73.242;2022-10-16T06:06:20;20.88;;;9.77;;
64060;SDS011;60147;55.036;73.242;2022-10-16T06:08:46;21.15;;;8.18;;
64060;SDS011;60147;55.036;73.242;2022-10-16T06:11:14;14.35;;;7.72;;
64060;SDS011;60147;55.036;73.242;2022-10-16T06:13:48;13.60;;;7.13;;
64060;SDS011;60147;55.036;73.242;2022-10-16T06:16:19;16.98;;;7.90;;
64060;SDS011;60147;55.036;73.242;2022-10-16T06:18:45;12.38;;;6.35;;
64060;SDS011;60147;55.036;73.242;2022-10-16T06:21:16;14.30;;;6.70;;
64060;SDS011;60147;55.036;73.242;2022-10-16T06:23:42;17.08;;;6.85;;
64060;SDS011;60147;55.036;73.242;2022-10-16T06:26:12;13.40;;;6.22;;
64060;SDS011;60147;55.036;73.242;2022-10-16T06:28:44;11.23;;;5.63;;
64060;SDS011;60147;55.036;73.242;2022-10-16T06:33:40;19.33;;;6.00;;
64060;SDS011;60147;55.036;73.242;2022-10-16T06:36:12;16.38;;;5.57;;
64060;SDS011;60147;55.036;73.242;2022-10-16T06:38:50;10.43;;;5.13;;
64060;SDS011;60147;55.036;73.242;2022-10-16T06:41:17;12.10;;;5.40;;
64060;SDS011;60147;55.036;73.242;2022-10-16T06:43:43;9.15;;;4.82;;
64060;SDS011;60147;55.036;73.242;2022-10-16T06:46:16;11.70;;;5.00;;
64060;SDS011;60147;55.036;73.242;2022-10-16T06:48:43;9.98;;;5.53;;
64060;SDS011;60147;55.036;73.242;2022-10-16T06:51:13;11.60;;;5.60;;
64060;SDS011;60147;55.036;73.242;2022-10-16T06:53:49;13.60;;;6.65;;
64060;SDS011;60147;55.036;73.242;2022-10-16T06:58:41;13.88;;;5.32;;
64060;SDS011;60147;55.036;73.242;2022-10-16T07:01:07;14.35;;;6.72;;
64060;SDS011;60147;55.036;73.242;2022-10-16T07:03:39;16.52;;;7.28;;
64060;SDS011;60147;55.036;73.242;2022-10-16T07:06:06;24.45;;;10.55;;
64060;SDS011;60147;55.036;73.242;2022-10-16T07:08:38;18.63;;;8.43;;
64060;SDS011;60147;55.036;73.242;2022-10-16T07:11:05;19.02;;;9.43;;
64060;SDS011;60147;55.036;73.242;2022-10-16T07:13:35;12.70;;;6.43;;
64060;SDS011;60147;55.036;73.242;2022-10-16T07:16:13;23.48;;;7.65;;
64060;SDS011;60147;55.036;73.242;2022-10-16T07:18:39;19.23;;;7.43;;
64060;SDS011;60147;55.036;73.242;2022-10-16T07:21:13;8.55;;;6.03;;
64060;SDS011;60147;55.036;73.242;2022-10-16T07:23:40;14.25;;;5.78;;
64060;SDS011;60147;55.036;73.242;2022-10-16T07:26:11;12.48;;;6.25;;
64060;SDS011;60147;55.036;73.242;2022-10-16T07:28:37;13.43;;;6.90;;
64060;SDS011;60147;55.036;73.242;2022-10-16T07:31:09;11.82;;;6.53;;
64060;SDS011;60147;55.036;73.242;2022-10-16T07:33:36;14.77;;;6.57;;
64060;SDS011;60147;55.036;73.242;2022-10-16T07:36:02;17.23;;;7.72;;
64060;SDS011;60147;55.036;73.242;2022-10-16T07:38:28;17.00;;;7.03;;
64060;SDS011;60147;55.036;73.242;2022-10-16T07:40:58;15.25;;;7.07;;
64060;SDS011;60147;55.036;73.242;2022-10-16T07:43:25;18.48;;;6.53;;
64060;SDS011;60147;55.036;73.242;2022-10-16T07:45:51;17.88;;;6.55;;
64060;SDS011;60147;55.036;73.242;2022-10-16T07:48:17;15.10;;;6.72;;
64060;SDS011;60147;55.036;73.242;2022-10-16T07:50:49;14.43;;;7.55;;
64060;SDS011;60147;55.036;73.242;2022-10-16T07:53:18;15.00;;;8.18;;
64060;SDS011;60147;55.036;73.242;2022-10-16T07:55:47;18.48;;;7.38;;
64060;SDS011;60147;55.036;73.242;2022-10-16T07:58:14;18.98;;;8.48;;
64060;SDS011;60147;55.036;73.242;2022-10-16T08:00:40;18.70;;;8.77;;
64060;SDS011;60147;55.036;73.242;2022-10-16T08:03:15;33.53;;;13.25;;
64060;SDS011;60147;55.036;73.242;2022-10-16T08:05:41;23.55;;;11.13;;
64060;SDS011;60147;55.036;73.242;2022-10-16T08:08:11;12.00;;;6.55;;
64060;SDS011;60147;55.036;73.242;2022-10-16T08:10:42;18.45;;;8.80;;
64060;SDS011;60147;55.036;73.242;2022-10-16T08:13:16;107.00;;;42.08;;
64060;SDS011;60147;55.036;73.242;2022-10-16T08:15:42;14.48;;;7.35;;
64060;SDS011;60147;55.036;73.242;2022-10-16T08:18:09;14.75;;;7.55;;
64060;SDS011;60147;55.036;73.242;2022-10-16T08:20:35;13.05;;;6.43;;
64060;SDS011;60147;55.036;73.242;2022-10-16T08:23:01;13.63;;;5.82;;
64060;SDS011;60147;55.036;73.242;2022-10-16T08:25:35;12.57;;;5.30;;
64060;SDS011;60147;55.036;73.242;2022-10-16T08:28:10;15.25;;;5.95;;
64060;SDS011;60147;55.036;73.242;2022-10-16T08:30:46;14.05;;;5.57;;
64060;SDS011;60147;55.036;73.242;2022-10-16T08:33:12;9.00;;;5.30;;
64060;SDS011;60147;55.036;73.242;2022-10-16T08:35:38;9.20;;;5.28;;
64060;SDS011;60147;55.036;73.242;2022-10-16T08:38:04;8.23;;;5.32;;
64060;SDS011;60147;55.036;73.242;2022-10-16T08:40:30;10.43;;;5.85;;
64060;SDS011;60147;55.036;73.242;2022-10-16T08:45:50;12.50;;;5.88;;
64060;SDS011;60147;55.036;73.242;2022-10-16T08:48:32;13.27;;;6.18;;
64060;SDS011;60147;55.036;73.242;2022-10-16T08:51:01;12.57;;;5.53;;
64060;SDS011;60147;55.036;73.242;2022-10-16T08:53:30;11.85;;;6.10;;
64060;SDS011;60147;55.036;73.242;2022-10-16T08:55:56;16.48;;;8.20;;
64060;SDS011;60147;55.036;73.242;2022-10-16T08:58:27;10.02;;;6.18;;
64060;SDS011;60147;55.036;73.242;2022-10-16T09:00:54;9.60;;;4.13;;
64060;SDS011;60147;55.036;73.242;2022-10-16T09:08:37;7.30;;;4.20;;
64060;SDS011;60147;55.036;73.242;2022-10-16T09:13:35;13.90;;;4.45;;
64060;SDS011;60147;55.036;73.242;2022-10-16T09:16:19;11.80;;;4.68;;
64060;SDS011;60147;55.036;73.242;2022-10-16T09:21:35;11.95;;;5.55;;
64060;SDS011;60147;55.036;73.242;2022-10-16T09:24:35;8.73;;;4.40;;
64060;SDS011;60147;55.036;73.242;2022-10-16T09:26:54;7.95;;;4.38;;
64060;SDS011;60147;55.036;73.242;2022-10-16T09:29:21;11.70;;;6.20;;
64060;SDS011;60147;55.036;73.242;2022-10-16T09:31:47;43.78;;;19.85;;
64060;SDS011;60147;55.036;73.242;2022-10-16T09:36:44;18.67;;;9.38;;
64060;SDS011;60147;55.036;73.242;2022-10-16T09:39:25;14.18;;;7.40;;
64060;SDS011;60147;55.036;73.242;2022-10-16T09:41:51;12.88;;;5.05;;
64060;SDS011;60147;55.036;73.242;2022-10-16T09:46:49;15.20;;;6.78;;
64060;SDS011;60147;55.036;73.242;2022-10-16T09:49:22;18.52;;;9.07;;
64060;SDS011;60147;55.036;73.242;2022-10-16T09:51:50;20.08;;;8.93;;
64060;SDS011;60147;55.036;73.242;2022-10-16T09:54:17;29.15;;;12.55;;
64060;SDS011;60147;55.036;73.242;2022-10-16T09:56:44;28.27;;;12.00;;
64060;SDS011;60147;55.036;73.242;2022-10-16T09:59:23;34.78;;;14.50;;
64060;SDS011;60147;55.036;73.242;2022-10-16T10:01:50;15.15;;;7.38;;
64060;SDS011;60147;55.036;73.242;2022-10-16T10:04:19;15.25;;;7.35;;
64060;SDS011;60147;55.036;73.242;2022-10-16T10:12:43;19.15;;;7.65;;
64060;SDS011;60147;55.036;73.242;2022-10-16T10:15:12;15.07;;;7.55;;
64060;SDS011;60147;55.036;73.242;2022-10-16T10:17:45;17.48;;;6.38;;
64060;SDS011;60147;55.036;73.242;2022-10-16T10:22:44;15.50;;;7.75;;
64060;SDS011;60147;55.036;73.242;2022-10-16T10:45:51;16.42;;;11.13;;
64060;SDS011;60147;55.036;73.242;2022-10-16T10:56:44;25.23;;;16.65;;
64060;SDS011;60147;55.036;73.242;2022-10-16T11:04:43;23.25;;;15.43;;
64060;SDS011;60147;55.036;73.242;2022-10-16T11:07:15;17.90;;;11.55;;
64060;SDS011;60147;55.036;73.242;2022-10-16T11:09:53;20.80;;;16.02;;
64060;SDS011;60147;55.036;73.242;2022-10-16T11:12:29;16.88;;;11.70;;
64060;SDS011;60147;55.036;73.242;2022-10-16T11:17:31;16.13;;;6.55;;
64060;SDS011;60147;55.036;73.242;2022-10-16T11:20:19;9.20;;;5.72;;
64060;SDS011;60147;55.036;73.242;2022-10-16T11:22:54;12.68;;;7.93;;
64060;SDS011;60147;55.036;73.242;2022-10-16T11:25:31;60.65;;;34.53;;
64060;SDS011;60147;55.036;73.242;2022-10-16T11:30:28;38.08;;;25.45;;
64060;SDS011;60147;55.036;73.242;2022-10-16T11:33:21;35.22;;;20.55;;
64060;SDS011;60147;55.036;73.242;2022-10-16T11:35:51;29.45;;;16.35;;
64060;SDS011;60147;55.036;73.242;2022-10-16T11:40:47;22.50;;;11.10;;
64060;SDS011;60147;55.036;73.242;2022-10-16T11:43:19;24.98;;;13.32;;
64060;SDS011;60147;55.036;73.242;2022-10-16T11:45:54;22.88;;;10.20;;
64060;SDS011;60147;55.036;73.242;2022-10-16T11:53:45;16.95;;;7.70;;
64060;SDS011;60147;55.036;73.242;2022-10-16T11:56:16;21.80;;;9.65;;
64060;SDS011;60147;55.036;73.242;2022-10-16T12:04:17;14.73;;;7.68;;
64060;SDS011;60147;55.036;73.242;2022-10-16T12:06:52;16.73;;;8.75;;
64060;SDS011;60147;55.036;73.242;2022-10-16T12:09:39;17.60;;;9.45;;
64060;SDS011;60147;55.036;73.242;2022-10-16T12:17:57;33.30;;;16.67;;
64060;SDS011;60147;55.036;73.242;2022-10-16T12:20:27;36.00;;;18.13;;
64060;SDS011;60147;55.036;73.242;2022-10-16T12:23:05;22.40;;;12.32;;
64060;SDS011;60147;55.036;73.242;2022-10-16T12:25:32;21.63;;;11.32;;
64060;SDS011;60147;55.036;73.242;2022-10-16T12:28:20;17.98;;;8.30;;
64060;SDS011;60147;55.036;73.242;2022-10-16T12:30:56;18.48;;;8.95;;
64060;SDS011;60147;55.036;73.242;2022-10-16T12:33:29;17.13;;;9.00;;
64060;SDS011;60147;55.036;73.242;2022-10-16T12:36:03;16.45;;;10.23;;
64060;SDS011;60147;55.036;73.242;2022-10-16T12:41:08;28.17;;;19.33;;
64060;SDS011;60147;55.036;73.242;2022-10-16T12:43:41;29.90;;;17.42;;
64060;SDS011;60147;55.036;73.242;2022-10-16T12:48:46;17.95;;;11.00;;
64060;SDS011;60147;55.036;73.242;2022-10-16T12:51:24;17.33;;;9.40;;
64060;SDS011;60147;55.036;73.242;2022-10-16T12:54:00;20.02;;;8.05;;
64060;SDS011;60147;55.036;73.242;2022-10-16T13:02:04;13.98;;;7.80;;
64060;SDS011;60147;55.036;73.242;2022-10-16T13:04:47;14.32;;;6.38;;
64060;SDS011;60147;55.036;73.242;2022-10-16T13:10:12;10.93;;;6.05;;
64060;SDS011;60147;55.036;73.242;2022-10-16T13:20:46;12.38;;;6.97;;
64060;SDS011;60147;55.036;73.242;2022-10-16T13:23:59;16.65;;;8.63;;
64060;SDS011;60147;55.036;73.242;2022-10-16T13:28:43;49.67;;;23.73;;
64060;SDS011;60147;55.036;73.242;2022-10-16T13:31:12;49.05;;;24.85;;
64060;SDS011;60147;55.036;73.242;2022-10-16T13:33:40;50.25;;;24.65;;
64060;SDS011;60147;55.036;73.242;2022-10-16T13:36:18;51.13;;;25.55;;
64060;SDS011;60147;55.036;73.242;2022-10-16T13:38:44;54.85;;;27.25;;
64060;SDS011;60147;55.036;73.242;2022-10-16T13:41:20;52.92;;;25.48;;
64060;SDS011;60147;55.036;73.242;2022-10-16T13:43:49;42.88;;;23.33;;
64060;SDS011;60147;55.036;73.242;2022-10-16T13:46:22;40.28;;;21.23;;
64060;SDS011;60147;55.036;73.242;2022-10-16T13:48:58;42.10;;;22.05;;
64060;SDS011;60147;55.036;73.242;2022-10-16T13:51:24;37.67;;;19.15;;
64060;SDS011;60147;55.036;73.242;2022-10-16T13:53:50;30.60;;;15.55;;
64060;SDS011;60147;55.036;73.242;2022-10-16T13:56:18;26.75;;;15.77;;
64060;SDS011;60147;55.036;73.242;2022-10-16T13:58:44;28.52;;;16.42;;
64060;SDS011;60147;55.036;73.242;2022-10-16T14:01:20;28.75;;;15.02;;
64060;SDS011;60147;55.036;73.242;2022-10-16T14:03:48;28.50;;;16.33;;
64060;SDS011;60147;55.036;73.242;2022-10-16T14:06:24;26.35;;;15.32;;
64060;SDS011;60147;55.036;73.242;2022-10-16T14:09:12;31.60;;;16.52;;
64060;SDS011;60147;55.036;73.242;2022-10-16T14:11:45;31.75;;;16.35;;
64060;SDS011;60147;55.036;73.242;2022-10-16T14:14:12;38.50;;;18.90;;
64060;SDS011;60147;55.036;73.242;2022-10-16T14:16:38;37.80;;;18.10;;
64060;SDS011;60147;55.036;73.242;2022-10-16T14:19:06;35.33;;;18.33;;
64060;SDS011;60147;55.036;73.242;2022-10-16T14:21:32;32.70;;;18.15;;
64060;SDS011;60147;55.036;73.242;2022-10-16T14:23:59;31.33;;;19.13;;
64060;SDS011;60147;55.036;73.242;2022-10-16T14:26:28;36.63;;;18.77;;
64060;SDS011;60147;55.036;73.242;2022-10-16T14:29:13;33.75;;;18.83;;
64060;SDS011;60147;55.036;73.242;2022-10-16T14:31:43;37.83;;;19.90;;
64060;SDS011;60147;55.036;73.242;2022-10-16T14:36:56;40.83;;;20.55;;
64060;SDS011;60147;55.036;73.242;2022-10-16T14:39:26;42.47;;;20.15;;
64060;SDS011;60147;55.036;73.242;2022-10-16T14:41:52;37.80;;;19.75;;
64060;SDS011;60147;55.036;73.242;2022-10-16T14:44:21;54.47;;;25.85;;
64060;SDS011;60147;55.036;73.242;2022-10-16T14:46:52;69.10;;;31.05;;
64060;SDS011;60147;55.036;73.242;2022-10-16T14:49:19;77.57;;;33.83;;
64060;SDS011;60147;55.036;73.242;2022-10-16T14:51:46;74.57;;;32.35;;
64060;SDS011;60147;55.036;73.242;2022-10-16T14:54:12;73.15;;;33.17;;
64060;SDS011;60147;55.036;73.242;2022-10-16T14:59:08;66.00;;;31.55;;
64060;SDS011;60147;55.036;73.242;2022-10-16T15:01:37;71.78;;;31.63;;
64060;SDS011;60147;55.036;73.242;2022-10-16T15:04:03;76.55;;;31.92;;
64060;SDS011;60147;55.036;73.242;2022-10-16T15:06:29;77.40;;;34.55;;
64060;SDS011;60147;55.036;73.242;2022-10-16T15:08:55;66.90;;;32.50;;
64060;SDS011;60147;55.036;73.242;2022-10-16T15:11:20;74.70;;;33.35;;
64060;SDS011;60147;55.036;73.242;2022-10-16T15:13:51;81.18;;;35.80;;
64060;SDS011;60147;55.036;73.242;2022-10-16T15:16:17;78.40;;;37.00;;
64060;SDS011;60147;55.036;73.242;2022-10-16T15:18:43;77.15;;;36.40;;
64060;SDS011;60147;55.036;73.242;2022-10-16T15:21:21;65.72;;;33.03;;
64060;SDS011;60147;55.036;73.242;2022-10-16T15:23:48;67.50;;;33.30;;
64060;SDS011;60147;55.036;73.242;2022-10-16T15:26:15;73.95;;;32.70;;
64060;SDS011;60147;55.036;73.242;2022-10-16T15:28:40;67.68;;;31.98;;
64060;SDS011;60147;55.036;73.242;2022-10-16T15:31:06;60.45;;;28.67;;
64060;SDS011;60147;55.036;73.242;2022-10-16T15:33:32;63.45;;;29.48;;
64060;SDS011;60147;55.036;73.242;2022-10-16T15:36:01;56.13;;;27.58;;
64060;SDS011;60147;55.036;73.242;2022-10-16T15:38:27;59.88;;;27.08;;
64060;SDS011;60147;55.036;73.242;2022-10-16T15:40:53;50.72;;;24.95;;
64060;SDS011;60147;55.036;73.242;2022-10-16T15:43:24;55.92;;;24.92;;
64060;SDS011;60147;55.036;73.242;2022-10-16T15:45:57;61.33;;;28.13;;
64060;SDS011;60147;55.036;73.242;2022-10-16T15:48:24;114.13;;;43.08;;
64060;SDS011;60147;55.036;73.242;2022-10-16T15:50:49;94.13;;;37.35;;
64060;SDS011;60147;55.036;73.242;2022-10-16T15:53:25;114.90;;;44.47;;
64060;SDS011;60147;55.036;73.242;2022-10-16T15:55:51;126.82;;;46.95;;
64060;SDS011;60147;55.036;73.242;2022-10-16T15:58:22;114.03;;;44.22;;
64060;SDS011;60147;55.036;73.242;2022-10-16T16:00:55;138.73;;;46.15;;
64060;SDS011;60147;55.036;73.242;2022-10-16T16:03:21;134.27;;;44.60;;
64060;SDS011;60147;55.036;73.242;2022-10-16T16:05:47;127.32;;;42.75;;
64060;SDS011;60147;55.036;73.242;2022-10-16T16:08:13;110.63;;;40.00;;
64060;SDS011;60147;55.036;73.242;2022-10-16T16:11:03;93.65;;;35.63;;
64060;SDS011;60147;55.036;73.242;2022-10-16T16:13:29;77.65;;;28.88;;
64060;SDS011;60147;55.036;73.242;2022-10-16T16:15:55;57.83;;;24.92;;
64060;SDS011;60147;55.036;73.242;2022-10-16T16:18:21;42.88;;;18.65;;
64060;SDS011;60147;55.036;73.242;2022-10-16T16:23:17;44.42;;;19.42;;
64060;SDS011;60147;55.036;73.242;2022-10-16T16:28:35;34.80;;;14.63;;
64060;SDS011;60147;55.036;73.242;2022-10-16T16:31:01;35.28;;;15.50;;
64060;SDS011;60147;55.036;73.242;2022-10-16T16:33:27;34.92;;;15.98;;
64060;SDS011;60147;55.036;73.242;2022-10-16T16:36:01;36.33;;;13.40;;
64060;SDS011;60147;55.036;73.242;2022-10-16T16:38:31;27.48;;;11.75;;
64060;SDS011;60147;55.036;73.242;2022-10-16T16:40:57;21.40;;;10.23;;
64060;SDS011;60147;55.036;73.242;2022-10-16T16:43:24;16.17;;;8.15;;
64060;SDS011;60147;55.036;73.242;2022-10-16T16:45:50;20.23;;;8.88;;
64060;SDS011;60147;55.036;73.242;2022-10-16T16:48:16;17.92;;;8.57;;
64060;SDS011;60147;55.036;73.242;2022-10-16T16:50:42;17.27;;;8.90;;
64060;SDS011;60147;55.036;73.242;2022-10-16T16:53:08;17.15;;;7.85;;
64060;SDS011;60147;55.036;73.242;2022-10-16T16:55:34;13.25;;;6.95;;
64060;SDS011;60147;55.036;73.242;2022-10-16T16:58:00;13.10;;;7.00;;
64060;SDS011;60147;55.036;73.242;2022-10-16T17:00:25;12.68;;;7.47;;